createdAt,value
2019-02-14T00:00:55.613Z,10.66
2019-02-14T00:03:25.780Z,10.63
2019-02-14T00:05:56.647Z,10.51
2019-02-14T00:08:28.049Z,10.60
2019-02-14T00:10:59.445Z,10.66
2019-02-14T00:13:30.060Z,10.77
2019-02-14T00:16:02.225Z,10.99
2019-02-14T00:18:32.733Z,10.63
2019-02-14T00:21:03.339Z,10.84
2019-02-14T00:23:35.225Z,11.07
2019-02-14T00:26:05.518Z,11.05
2019-02-14T00:28:35.680Z,11.04
2019-02-14T00:31:07.863Z,11.10
2019-02-14T00:33:39.055Z,10.73
2019-02-14T00:36:10.069Z,10.55
2019-02-14T00:38:40.630Z,10.89
2019-02-14T00:41:11.493Z,10.51
2019-02-14T00:43:42.492Z,10.88
2019-02-14T00:46:15.296Z,10.67
2019-02-14T00:48:45.496Z,10.65
2019-02-14T00:51:16.804Z,10.93
2019-02-14T00:53:46.996Z,10.93
2019-02-14T00:56:17.537Z,11.02
2019-02-14T00:58:47.741Z,11.04
2019-02-14T01:01:18.907Z,11.06
2019-02-14T01:03:50.750Z,10.80
2019-02-14T01:06:21.852Z,10.52
2019-02-14T01:08:53.467Z,10.50
2019-02-14T01:11:24.510Z,10.58
2019-02-14T01:13:55.134Z,10.90
2019-02-14T01:16:26.707Z,10.50
2019-02-14T01:18:58.909Z,9.95
2019-02-14T01:21:30.332Z,9.79
2019-02-14T01:24:01.720Z,10.01
2019-02-14T01:26:32.546Z,10.06
2019-02-14T01:29:05.468Z,9.94
2019-02-14T01:31:36.115Z,9.65
2019-02-14T01:34:08.011Z,9.73
2019-02-14T01:36:38.207Z,9.60
2019-02-14T01:39:08.438Z,9.76
2019-02-14T01:41:39.904Z,9.83
2019-02-14T01:44:10.506Z,9.93
2019-02-14T01:46:42.164Z,9.29
2019-02-14T01:49:14.677Z,9.51
2019-02-14T01:51:45.797Z,8.86
2019-02-14T01:54:18.689Z,8.70
2019-02-14T01:56:48.976Z,9.27
2019-02-14T01:59:19.542Z,9.63
2019-02-14T02:01:50.271Z,9.59
2019-02-14T02:04:21.234Z,9.53
2019-02-14T02:06:52.928Z,9.71
2019-02-14T02:09:23.497Z,9.74
2019-02-14T02:11:54.213Z,9.83
2019-02-14T02:14:24.384Z,9.06
2019-02-14T02:16:54.574Z,9.31
2019-02-14T02:19:25.574Z,9.37
2019-02-14T02:21:57.750Z,9.66
2019-02-14T02:24:31.530Z,9.43
2019-02-14T02:27:02.893Z,9.47
2019-02-14T02:29:34.220Z,9.30
2019-02-14T02:32:04.946Z,9.54
2019-02-14T02:34:36.650Z,9.46
2019-02-14T02:37:07.284Z,9.61
2019-02-14T02:39:37.464Z,9.73
2019-02-14T02:42:07.981Z,9.92
2019-02-14T02:44:38.723Z,9.34
2019-02-14T02:47:10.568Z,9.56
2019-02-14T02:49:41.512Z,9.46
2019-02-14T02:52:14.310Z,9.64
2019-02-14T02:54:45.371Z,9.19
2019-02-14T02:57:17.954Z,9.44
2019-02-14T02:59:49.128Z,9.41
2019-02-14T03:02:19.300Z,9.28
2019-02-14T03:04:49.540Z,9.72
2019-02-14T03:07:20.586Z,9.82
2019-02-14T03:09:50.774Z,9.85
2019-02-14T03:12:23.301Z,9.59
2019-02-14T03:14:54.390Z,9.77
2019-02-14T03:17:24.545Z,9.18
2019-02-14T03:19:55.723Z,9.50
2019-02-14T03:22:25.898Z,9.21
2019-02-14T03:24:58.531Z,8.85
2019-02-14T03:27:30.717Z,9.17
2019-02-14T03:30:01.431Z,9.44
2019-02-14T03:32:32.246Z,9.23
2019-02-14T03:35:02.553Z,8.80
2019-02-14T03:37:33.303Z,9.14
2019-02-14T03:40:05.831Z,9.12
2019-02-14T03:42:41.795Z,9.36
2019-02-14T03:45:17.539Z,9.22
2019-02-14T03:47:48.953Z,9.45
2019-02-14T03:50:19.521Z,9.52
2019-02-14T03:52:53.256Z,9.19
2019-02-14T03:55:25.774Z,8.80
2019-02-14T03:57:55.981Z,9.18
2019-02-14T04:00:28.998Z,9.27
2019-02-14T04:02:59.783Z,9.24
2019-02-14T04:05:32.349Z,9.28
2019-02-14T04:08:07.703Z,9.29
2019-02-14T04:10:37.983Z,9.61
2019-02-14T04:13:09.052Z,9.09
2019-02-14T04:15:40.803Z,9.10
2019-02-14T04:18:11.064Z,9.10
2019-02-14T04:20:41.749Z,9.15
2019-02-14T04:23:12.346Z,9.21
2019-02-14T04:25:43.988Z,9.00
2019-02-14T04:28:14.686Z,9.12
2019-02-14T04:30:47.194Z,9.24
2019-02-14T04:33:19.113Z,9.16
2019-02-14T04:35:53.979Z,8.79
2019-02-14T04:38:24.971Z,8.98
2019-02-14T04:40:55.698Z,9.08
2019-02-14T04:43:26.432Z,8.90
2019-02-14T04:45:57.137Z,9.13
2019-02-14T04:48:27.304Z,9.16
2019-02-14T04:50:58.426Z,8.15
2019-02-14T04:53:28.613Z,8.64
2019-02-14T04:55:58.837Z,8.23
2019-02-14T04:58:29.059Z,8.55
2019-02-14T05:01:01.093Z,8.28
2019-02-14T05:03:31.656Z,7.87
2019-02-14T05:06:03.049Z,7.83
2019-02-14T05:08:33.229Z,8.29
2019-02-14T05:11:03.453Z,8.17
2019-02-14T05:13:34.044Z,8.10
2019-02-14T05:16:04.643Z,7.65
2019-02-14T05:18:35.190Z,7.83
2019-02-14T05:21:06.745Z,7.87
2019-02-14T05:23:37.412Z,8.23
2019-02-14T05:26:10.409Z,7.70
2019-02-14T05:28:42.869Z,7.74
2019-02-14T05:31:13.879Z,8.07
2019-02-14T05:33:45.385Z,7.98
2019-02-14T05:36:27.082Z,8.07
2019-02-14T05:38:58.513Z,8.37
2019-02-14T05:41:28.679Z,8.25
2019-02-14T05:43:59.951Z,8.12
2019-02-14T05:46:31.385Z,8.19
2019-02-14T05:49:02.223Z,8.23
2019-02-14T05:51:32.425Z,8.23
2019-02-14T05:54:02.670Z,8.58
2019-02-14T05:56:36.800Z,8.23
2019-02-14T05:59:08.764Z,8.25
2019-02-14T06:01:41.312Z,8.12
2019-02-14T06:04:13.702Z,8.18
2019-02-14T06:06:46.673Z,8.37
2019-02-14T06:09:20.003Z,8.44
2019-02-14T06:11:53.633Z,8.47
2019-02-14T06:14:24.228Z,8.31
2019-02-14T06:16:55.657Z,8.10
2019-02-14T06:19:29.322Z,7.95
2019-02-14T06:22:00.267Z,8.34
2019-02-14T06:24:31.896Z,8.02
2019-02-14T06:27:04.329Z,8.35
2019-02-14T06:29:37.562Z,8.40
2019-02-14T06:32:08.098Z,8.52
2019-02-14T06:34:38.721Z,8.70
2019-02-14T06:37:09.962Z,8.60
2019-02-14T06:39:41.458Z,8.33
2019-02-14T06:42:12.021Z,8.44
2019-02-14T06:44:42.745Z,7.75
2019-02-14T06:47:13.330Z,7.47
2019-02-14T06:49:43.498Z,7.34
2019-02-14T06:52:15.882Z,7.34
2019-02-14T06:54:48.319Z,7.71
2019-02-14T06:57:19.186Z,7.51
2019-02-14T06:59:50.708Z,7.72
2019-02-14T07:02:21.321Z,7.76
2019-02-14T07:04:52.849Z,7.77
2019-02-14T07:07:25.936Z,7.46
2019-02-14T07:09:59.601Z,7.40
2019-02-14T07:12:31.076Z,7.56
2019-02-14T07:15:03.385Z,7.31
2019-02-14T07:17:39.420Z,7.62
2019-02-14T07:20:13.647Z,7.57
2019-02-14T07:22:45.384Z,7.49
2019-02-14T07:25:23.650Z,7.82
2019-02-14T07:27:58.005Z,8.05
2019-02-14T07:30:31.680Z,8.28
2019-02-14T07:33:04.861Z,8.19
2019-02-14T07:35:36.709Z,8.33
2019-02-14T07:38:08.573Z,8.62
2019-02-14T07:40:39.682Z,8.66
2019-02-14T07:43:10.635Z,8.53
2019-02-14T07:45:42.706Z,8.71
2019-02-14T07:48:13.950Z,8.64
2019-02-14T07:50:45.411Z,8.43
2019-02-14T07:53:17.088Z,8.73
2019-02-14T07:55:51.222Z,8.63
2019-02-14T07:58:21.408Z,8.44
2019-02-14T08:00:53.365Z,8.82
2019-02-14T08:03:23.552Z,8.47
2019-02-14T08:05:55.345Z,9.11
2019-02-14T08:08:27.478Z,8.91
2019-02-14T08:10:58.824Z,8.49
2019-02-14T08:13:29.968Z,8.62
2019-02-14T08:16:00.503Z,8.95
2019-02-14T08:18:32.237Z,8.65
2019-02-14T08:21:02.940Z,9.22
2019-02-14T08:23:36.010Z,9.34
2019-02-14T08:26:10.835Z,9.11
2019-02-14T08:28:40.979Z,8.80
2019-02-14T08:31:13.693Z,8.92
2019-02-14T08:33:47.834Z,9.24
2019-02-14T08:36:22.502Z,9.46
2019-02-14T08:38:54.979Z,9.17
2019-02-14T08:41:37.563Z,9.26
2019-02-14T08:44:08.396Z,9.30
2019-02-14T08:47:03.504Z,9.39
2019-02-14T08:49:36.928Z,9.32
2019-02-14T08:52:09.562Z,9.01
2019-02-14T08:54:42.812Z,9.72
2019-02-14T08:57:13.886Z,9.22
2019-02-14T08:59:45.004Z,9.56
2019-02-14T09:02:16.305Z,9.28
2019-02-14T09:04:47.326Z,9.37
2019-02-14T09:07:19.623Z,9.34
2019-02-14T09:09:50.631Z,9.41
2019-02-14T09:12:21.995Z,9.24
2019-02-14T09:14:53.306Z,9.14
2019-02-14T09:17:24.695Z,9.39
2019-02-14T09:19:56.470Z,9.37
2019-02-14T09:22:27.806Z,9.91
2019-02-14T09:25:01.332Z,9.53
2019-02-14T09:27:40.411Z,10.27
2019-02-14T09:30:25.511Z,10.79
2019-02-14T09:32:57.009Z,10.48
2019-02-14T09:35:29.231Z,10.93
2019-02-14T09:38:03.437Z,11.08
2019-02-14T09:40:32.750Z,11.13
2019-02-14T09:43:03.776Z,11.06
2019-02-14T09:45:39.358Z,11.51
2019-02-14T09:48:10.737Z,11.89
2019-02-14T09:50:42.905Z,11.50
2019-02-14T09:53:14.118Z,11.87
2019-02-14T09:55:45.750Z,11.84
2019-02-14T09:58:20.306Z,11.86
2019-02-14T10:00:51.869Z,11.80
2019-02-14T10:03:23.778Z,11.63
2019-02-14T10:05:56.401Z,11.81
2019-02-14T10:08:29.909Z,12.17
2019-02-14T10:11:01.055Z,12.45
2019-02-14T10:13:33.004Z,12.23
2019-02-14T10:16:04.399Z,12.34
2019-02-14T10:18:38.156Z,11.88
2019-02-14T10:21:09.305Z,11.87
2019-02-14T10:23:40.746Z,12.54
2019-02-14T10:26:12.018Z,12.65
2019-02-14T10:28:43.204Z,12.99
2019-02-14T10:31:15.295Z,12.75
2019-02-14T10:33:47.789Z,12.20
2019-02-14T10:36:49.106Z,12.43
2019-02-14T10:39:22.632Z,12.07
2019-02-14T10:41:54.903Z,12.25
2019-02-14T10:44:27.050Z,12.68
2019-02-14T10:47:02.041Z,12.93
2019-02-14T10:49:32.673Z,13.15
2019-02-14T10:52:03.427Z,13.35
2019-02-14T10:54:34.823Z,13.54
2019-02-14T10:57:06.668Z,13.60
2019-02-14T10:59:41.283Z,13.64
2019-02-14T11:02:15.515Z,14.08
2019-02-14T11:04:48.813Z,14.60
2019-02-14T11:07:21.859Z,15.08
2019-02-14T11:09:52.030Z,15.37
2019-02-14T11:12:26.933Z,15.44
2019-02-14T11:14:59.871Z,15.95
2019-02-14T11:17:30.468Z,16.39
2019-02-14T11:20:03.048Z,16.64
2019-02-14T11:22:34.260Z,17.24
2019-02-14T11:25:06.263Z,17.59
2019-02-14T11:27:42.973Z,18.13
2019-02-14T11:30:17.891Z,18.28
2019-02-14T11:32:48.739Z,18.82
2019-02-14T11:35:22.549Z,19.63
2019-02-14T11:37:55.780Z,20.39
2019-02-14T11:40:34.104Z,21.70
2019-02-14T11:43:07.508Z,22.09
2019-02-14T11:45:39.963Z,22.80
2019-02-14T11:48:11.448Z,22.93
2019-02-14T11:50:42.290Z,22.70
2019-02-14T11:53:14.132Z,22.96
2019-02-14T11:55:45.662Z,22.96
2019-02-14T11:58:18.940Z,23.00
2019-02-14T12:00:49.451Z,22.17
2019-02-14T12:03:21.906Z,21.72
2019-02-14T12:06:02.152Z,20.87
2019-02-14T12:08:35.345Z,20.76
2019-02-14T12:11:09.954Z,20.40
2019-02-14T12:13:41.090Z,19.57
2019-02-14T12:16:12.562Z,19.40
2019-02-14T12:18:44.298Z,19.65
2019-02-14T12:21:18.408Z,21.09
2019-02-14T12:23:50.957Z,23.11
2019-02-14T12:26:23.028Z,24.60
2019-02-14T12:28:54.454Z,24.57
2019-02-14T12:31:26.064Z,25.16
2019-02-14T12:34:00.458Z,25.02
2019-02-14T12:36:32.011Z,24.12
2019-02-14T12:39:09.140Z,24.12
2019-02-14T12:41:40.440Z,24.87
2019-02-14T12:44:14.854Z,25.59
2019-02-14T12:46:48.140Z,25.59
2019-02-14T12:49:18.836Z,25.33
2019-02-14T12:51:53.909Z,25.33
2019-02-14T12:54:24.540Z,24.72
2019-02-14T12:56:55.072Z,23.80
2019-02-14T12:59:25.688Z,23.85
2019-02-14T13:02:01.588Z,23.91
2019-02-14T13:04:33.117Z,21.85
2019-02-14T13:07:04.214Z,22.27
2019-02-14T13:09:34.391Z,22.70
2019-02-14T13:12:06.603Z,23.15
2019-02-14T13:14:38.613Z,22.62
2019-02-14T13:17:20.599Z,23.09
2019-02-14T13:19:56.900Z,23.77
2019-02-14T13:22:28.357Z,23.43
2019-02-14T13:24:58.878Z,26.16
2019-02-14T13:27:35.705Z,26.16
2019-02-14T13:30:09.420Z,26.91
2019-02-14T13:32:41.345Z,27.70
2019-02-14T13:35:23.536Z,27.69
2019-02-14T13:37:54.642Z,27.75
2019-02-14T13:40:29.390Z,28.31
2019-02-14T13:43:00.912Z,28.34
2019-02-14T13:45:34.345Z,27.80
2019-02-14T13:48:07.686Z,26.81
2019-02-14T13:50:38.209Z,26.27
2019-02-14T13:53:09.682Z,24.81
2019-02-14T13:55:47.369Z,24.72
2019-02-14T13:58:23.608Z,24.39
2019-02-14T14:00:54.617Z,24.06
2019-02-14T14:03:30.686Z,23.42
2019-02-14T14:06:04.095Z,23.33
2019-02-14T14:08:35.234Z,22.99
2019-02-14T14:11:05.388Z,22.81
2019-02-14T14:13:37.034Z,22.64
2019-02-14T14:16:07.645Z,22.30
2019-02-14T14:18:38.514Z,22.14
2019-02-14T14:21:10.863Z,21.91
2019-02-14T14:23:44.715Z,21.86
2019-02-14T14:26:17.999Z,21.75
2019-02-14T14:28:48.903Z,21.47
2019-02-14T14:31:21.055Z,21.44
2019-02-14T14:33:52.808Z,21.28
2019-02-14T14:36:25.884Z,21.23
2019-02-14T14:38:56.567Z,20.86
2019-02-14T14:41:26.762Z,20.90
2019-02-14T14:44:26.770Z,20.90
2019-02-14T14:47:04.818Z,20.83
2019-02-14T14:49:37.316Z,20.68
2019-02-14T14:52:08.223Z,20.68
2019-02-14T14:54:40.177Z,20.64
2019-02-14T14:57:10.761Z,20.54
2019-02-14T14:59:43.850Z,20.54
2019-02-14T15:02:14.399Z,20.42
2019-02-14T15:04:46.058Z,20.25
2019-02-14T15:07:17.967Z,20.30
2019-02-14T15:09:57.333Z,20.13
2019-02-14T15:12:20.770Z,20.17
2019-02-14T15:14:53.483Z,20.11
2019-02-14T15:17:26.085Z,20.21
2019-02-14T15:20:00.506Z,20.26
2019-02-14T15:22:30.636Z,20.04
2019-02-14T15:25:01.824Z,20.12
2019-02-14T15:27:32.871Z,20.02
2019-02-14T15:30:03.205Z,19.91
2019-02-14T15:32:35.984Z,20.09
2019-02-14T15:35:09.281Z,20.13
2019-02-14T15:37:44.541Z,20.33
2019-02-14T15:40:15.613Z,19.90
2019-02-14T15:42:46.174Z,20.20
2019-02-14T15:45:22.461Z,20.10
2019-02-14T15:47:53.090Z,19.92
2019-02-14T15:50:27.887Z,20.13
2019-02-14T15:53:00.577Z,20.01
2019-02-14T15:55:31.433Z,19.97
2019-02-14T15:58:07.324Z,20.07
2019-02-14T16:00:41.217Z,19.84
2019-02-14T16:03:17.855Z,19.91
2019-02-14T16:05:51.301Z,19.91
2019-02-14T16:08:23.921Z,19.92
2019-02-14T16:10:55.883Z,19.82
2019-02-14T16:13:26.153Z,19.69
2019-02-14T16:15:58.764Z,19.48
2019-02-14T16:18:29.493Z,19.34
2019-02-14T16:21:03.542Z,19.32
2019-02-14T16:23:34.464Z,19.33
2019-02-14T16:26:06.045Z,19.24
2019-02-14T16:28:41.085Z,19.18
2019-02-14T16:31:16.278Z,18.81
2019-02-14T16:33:47.322Z,18.88
2019-02-14T16:36:20.622Z,18.72
2019-02-14T16:38:52.301Z,18.74
2019-02-14T16:41:24.074Z,18.19
2019-02-14T16:43:54.789Z,18.54
2019-02-14T16:46:27.139Z,18.77
2019-02-14T16:48:57.331Z,18.70
2019-02-14T16:51:27.487Z,18.49
2019-02-14T16:53:59.404Z,18.66
2019-02-14T16:56:30.499Z,18.74
2019-02-14T16:59:00.895Z,18.67
2019-02-14T17:01:33.206Z,18.71
2019-02-14T17:04:04.856Z,18.64
2019-02-14T17:06:36.652Z,18.63
2019-02-14T17:09:10.412Z,18.23
2019-02-14T17:11:42.824Z,18.20
2019-02-14T17:14:13.399Z,18.00
2019-02-14T17:16:44.341Z,18.18
2019-02-14T17:19:19.221Z,18.21
2019-02-14T17:21:49.398Z,18.01
2019-02-14T17:24:21.801Z,18.23
2019-02-14T17:26:54.803Z,18.08
2019-02-14T17:29:26.299Z,17.88
2019-02-14T17:31:57.504Z,18.04
2019-02-14T17:34:27.732Z,17.88
2019-02-14T17:37:12.917Z,17.75
2019-02-14T17:39:50.705Z,17.82
2019-02-14T17:42:22.442Z,17.47
2019-02-14T17:44:55.976Z,17.50
2019-02-14T17:47:28.478Z,17.66
2019-02-14T17:50:02.604Z,17.60
2019-02-14T17:52:33.236Z,17.58
2019-02-14T17:55:06.503Z,17.53
2019-02-14T17:57:39.791Z,17.08
2019-02-14T18:00:11.766Z,17.02
2019-02-14T18:02:44.531Z,17.09
2019-02-14T18:05:16.394Z,16.76
2019-02-14T18:07:46.570Z,17.08
2019-02-14T18:10:19.643Z,17.12
2019-02-14T18:12:51.369Z,16.93
2019-02-14T18:15:21.946Z,16.76
2019-02-14T18:17:54.192Z,16.81
2019-02-14T18:20:25.657Z,16.90
2019-02-14T18:22:57.578Z,16.96
2019-02-14T18:25:28.149Z,16.79
2019-02-14T18:28:01.144Z,16.52
2019-02-14T18:30:32.102Z,16.76
2019-02-14T18:33:03.119Z,16.76
2019-02-14T18:35:34.064Z,16.70
2019-02-14T18:38:06.732Z,16.73
2019-02-14T18:40:40.853Z,16.86
2019-02-14T18:43:17.245Z,16.84
2019-02-14T18:45:48.575Z,16.93
2019-02-14T18:48:19.176Z,16.91
2019-02-14T18:50:50.424Z,16.94
2019-02-14T18:53:21.275Z,16.72
2019-02-14T18:55:52.859Z,16.63
2019-02-14T18:58:26.852Z,16.30
2019-02-14T19:01:02.722Z,16.29
2019-02-14T19:03:36.145Z,16.09
2019-02-14T19:06:07.683Z,16.31
2019-02-14T19:08:43.565Z,16.04
2019-02-14T19:11:21.001Z,16.03
2019-02-14T19:13:57.782Z,15.81
2019-02-14T19:16:29.523Z,15.55
2019-02-14T19:18:59.703Z,15.42
2019-02-14T19:21:29.988Z,15.74
2019-02-14T19:24:01.060Z,15.07
2019-02-14T19:26:33.048Z,15.13
2019-02-14T19:29:07.977Z,15.12
2019-02-14T19:31:39.020Z,15.13
2019-02-14T19:34:10.455Z,14.76
2019-02-14T19:36:40.983Z,14.63
2019-02-14T19:39:12.101Z,14.95
2019-02-14T19:41:47.781Z,15.03
2019-02-14T19:44:19.529Z,15.25
2019-02-14T19:46:50.196Z,14.72
2019-02-14T19:49:20.384Z,15.13
2019-02-14T19:51:53.229Z,15.25
2019-02-14T19:54:28.623Z,14.88
2019-02-14T19:57:01.224Z,15.09
2019-02-14T19:59:34.236Z,14.91
2019-02-14T20:02:07.868Z,14.81
2019-02-14T20:04:43.644Z,14.16
2019-02-14T20:07:15.059Z,14.81
2019-02-14T20:09:47.405Z,14.73
2019-02-14T20:12:17.812Z,14.96
2019-02-14T20:14:50.795Z,14.64
2019-02-14T20:17:28.975Z,14.70
2019-02-14T20:20:01.247Z,14.94
2019-02-14T20:22:31.847Z,14.72
2019-02-14T20:25:03.307Z,14.54
2019-02-14T20:27:36.381Z,14.49
2019-02-14T20:30:09.858Z,14.68
2019-02-14T20:32:40.033Z,14.84
2019-02-14T20:35:11.052Z,14.87
2019-02-14T20:37:41.689Z,14.84
2019-02-14T20:40:15.967Z,14.68
2019-02-14T20:42:48.440Z,14.94
2019-02-14T20:45:22.757Z,14.96
2019-02-14T20:47:57.062Z,14.67
2019-02-14T20:50:26.583Z,14.15
2019-02-14T20:52:56.744Z,14.57
2019-02-14T20:55:30.867Z,14.58
2019-02-14T20:58:06.799Z,14.28
2019-02-14T21:00:40.510Z,14.09
2019-02-14T21:03:17.353Z,14.10
2019-02-14T21:05:51.624Z,13.89
2019-02-14T21:08:25.889Z,14.17
2019-02-14T21:10:58.822Z,14.45
2019-02-14T21:13:29.928Z,14.46
2019-02-14T21:16:03.525Z,14.06
2019-02-14T21:18:36.038Z,14.30
2019-02-14T21:21:08.280Z,14.35
2019-02-14T21:23:41.391Z,14.18
2019-02-14T21:26:13.912Z,14.30
2019-02-14T21:28:44.655Z,14.16
2019-02-14T21:31:16.823Z,14.33
2019-02-14T21:33:48.322Z,13.83
2019-02-14T21:36:20.323Z,14.21
2019-02-14T21:38:53.038Z,14.11
2019-02-14T21:41:24.424Z,13.98
2019-02-14T21:43:56.915Z,13.46
2019-02-14T21:46:28.401Z,13.48
2019-02-14T21:48:59.546Z,13.51
2019-02-14T21:51:30.128Z,13.46
2019-02-14T21:54:04.705Z,13.18
2019-02-14T21:56:36.772Z,13.64
2019-02-14T21:59:06.940Z,13.15
2019-02-14T22:01:42.501Z,13.48
2019-02-14T22:04:14.492Z,13.18
2019-02-14T22:06:46.980Z,13.43
2019-02-14T22:09:18.193Z,13.12
2019-02-14T22:11:49.387Z,12.96
2019-02-14T22:14:20.620Z,13.30
2019-02-14T22:16:52.569Z,12.93
2019-02-14T22:19:23.056Z,13.24
2019-02-14T22:21:55.899Z,13.53
2019-02-14T22:24:26.459Z,12.93
2019-02-14T22:26:56.706Z,12.82
2019-02-14T22:29:27.627Z,13.32
2019-02-14T22:31:59.614Z,13.35
2019-02-14T22:34:31.421Z,13.29
2019-02-14T22:37:01.998Z,13.29
2019-02-14T22:39:32.214Z,13.01
2019-02-14T22:42:57.352Z,13.34
2019-02-14T22:45:30.716Z,13.30
2019-02-14T22:48:01.405Z,12.99
2019-02-14T22:50:31.587Z,12.79
2019-02-14T22:53:02.631Z,13.07
2019-02-14T22:55:33.116Z,13.30
2019-02-14T22:58:05.785Z,12.77
2019-02-14T23:00:55.018Z,12.70
2019-02-14T23:03:28.541Z,12.67
2019-02-14T23:05:59.678Z,12.52
2019-02-14T23:08:36.580Z,12.66
2019-02-14T23:11:10.475Z,12.45
2019-02-14T23:13:48.833Z,12.88
2019-02-14T23:16:21.293Z,12.69
2019-02-14T23:19:08.274Z,12.94
2019-02-14T23:21:39.826Z,13.18
2019-02-14T23:24:12.166Z,12.68
2019-02-14T23:26:52.532Z,13.10
2019-02-14T23:29:24.127Z,12.67
2019-02-14T23:31:55.522Z,12.44
2019-02-14T23:34:31.496Z,12.41
2019-02-14T23:37:03.012Z,12.59
2019-02-14T23:39:34.034Z,12.66
2019-02-14T23:42:06.068Z,12.49
2019-02-14T23:44:38.451Z,12.09
2019-02-14T23:47:11.116Z,12.20
2019-02-14T23:49:42.302Z,11.97
2019-02-14T23:52:13.489Z,12.15
2019-02-14T23:54:44.282Z,12.04
2019-02-14T23:57:14.830Z,12.06
2019-02-14T23:59:45.709Z,12.15
